createdAt,value
2022-09-15T00:01:09.629Z,100168.28
2022-09-15T00:03:37.862Z,100154.78
2022-09-15T00:06:08.078Z,100159.63
2022-09-15T00:08:36.117Z,100169.78
2022-09-15T00:11:07.415Z,100171.75
2022-09-15T00:13:36.759Z,100173.63
2022-09-15T00:16:05.822Z,100175.78
2022-09-15T00:18:34.789Z,100182.97
2022-09-15T00:21:08.386Z,100187.81
2022-09-15T00:23:36.473Z,100190.75
2022-09-15T00:26:08.103Z,100188.63
2022-09-15T00:28:36.537Z,100189.47
2022-09-15T00:31:07.645Z,100188.63
2022-09-15T00:33:36.024Z,100196.13
2022-09-15T00:36:06.334Z,100190.78
2022-09-15T00:38:36.795Z,100189.78
2022-09-15T00:41:06.574Z,100175.34
2022-09-15T00:43:47.355Z,100184.00
2022-09-15T00:46:17.178Z,100181.03
2022-09-15T00:48:50.036Z,100186.25
2022-09-15T00:51:24.144Z,100190.06
2022-09-15T00:53:54.185Z,100190.38
2022-09-15T00:56:24.048Z,100190.38
2022-09-15T00:58:55.995Z,100188.69
2022-09-15T01:01:27.210Z,100189.09
2022-09-15T01:03:56.150Z,100183.72
2022-09-15T01:06:31.937Z,100182.44
2022-09-15T01:09:07.731Z,100178.72
2022-09-15T01:11:36.510Z,100180.16
2022-09-15T01:14:04.448Z,100172.78
2022-09-15T01:16:42.783Z,100174.50
2022-09-15T01:19:34.699Z,100174.34
2022-09-15T01:22:15.067Z,100176.91
2022-09-15T01:24:55.321Z,100173.75
2022-09-15T01:27:43.265Z,100181.97
2022-09-15T01:30:15.451Z,100181.16
2022-09-15T01:33:04.574Z,100169.78
2022-09-15T01:35:45.772Z,100178.16
2022-09-15T01:38:22.351Z,100175.06
2022-09-15T01:40:56.771Z,100172.63
2022-09-15T01:43:27.661Z,100170.66
2022-09-15T01:45:58.634Z,100175.63
2022-09-15T01:48:29.254Z,100177.16
2022-09-15T01:51:00.124Z,100180.84
2022-09-15T01:53:29.528Z,100182.84
2022-09-15T01:56:02.052Z,100184.25
2022-09-15T01:58:30.143Z,100173.81
2022-09-15T02:01:03.469Z,100178.91
2022-09-15T02:03:36.205Z,100177.38
2022-09-15T02:06:09.926Z,100173.41
2022-09-15T02:08:45.270Z,100179.50
2022-09-15T02:11:18.140Z,100178.78
2022-09-15T02:13:54.627Z,100177.47
2022-09-15T02:16:26.112Z,100172.97
2022-09-15T02:19:13.790Z,100178.34
2022-09-15T02:21:54.023Z,100182.75
2022-09-15T02:24:28.405Z,100176.66
2022-09-15T02:26:56.420Z,100180.34
2022-09-15T02:29:28.328Z,100174.84
2022-09-15T02:32:02.650Z,100176.81
2022-09-15T02:34:35.930Z,100187.03
2022-09-15T02:37:05.823Z,100196.63
2022-09-15T02:39:38.018Z,100200.31
2022-09-15T02:42:06.253Z,100204.38
2022-09-15T02:44:34.362Z,100204.69
2022-09-15T02:47:04.730Z,100205.81
2022-09-15T02:49:37.166Z,100198.91
2022-09-15T02:52:05.124Z,100199.44
2022-09-15T02:54:32.992Z,100200.59
2022-09-15T02:57:01.246Z,100200.00
2022-09-15T02:59:49.722Z,100201.56
2022-09-15T03:02:20.434Z,100190.81
2022-09-15T03:04:49.036Z,100183.03
2022-09-15T03:07:17.499Z,100183.75
2022-09-15T03:09:46.100Z,100184.56
2022-09-15T03:12:14.007Z,100185.44
2022-09-15T03:14:41.961Z,100187.25
2022-09-15T03:17:09.962Z,100195.31
2022-09-15T03:19:39.412Z,100191.50
2022-09-15T03:22:07.395Z,100188.69
2022-09-15T03:24:35.284Z,100193.09
2022-09-15T03:27:03.182Z,100194.78
2022-09-15T03:29:31.210Z,100199.63
2022-09-15T03:31:59.153Z,100199.31
2022-09-15T03:34:27.087Z,100209.09
2022-09-15T03:36:56.310Z,100212.50
2022-09-15T03:39:24.393Z,100213.47
2022-09-15T03:41:52.262Z,100220.56
2022-09-15T03:44:20.304Z,100218.84
2022-09-15T03:46:48.384Z,100218.44
2022-09-15T03:49:16.211Z,100210.22
2022-09-15T03:51:44.731Z,100198.59
2022-09-15T03:54:14.086Z,100201.91
2022-09-15T03:56:41.937Z,100205.66
2022-09-15T03:59:10.612Z,100207.50
2022-09-15T04:01:39.411Z,100197.91
2022-09-15T04:04:07.445Z,100187.97
2022-09-15T04:06:35.829Z,100188.56
2022-09-15T04:09:03.916Z,100191.50
2022-09-15T04:11:33.374Z,100192.22
2022-09-15T04:14:01.446Z,100193.34
2022-09-15T04:16:29.570Z,100189.97
2022-09-15T04:18:58.010Z,100182.88
2022-09-15T04:21:27.546Z,100178.78
2022-09-15T04:23:55.604Z,100180.66
2022-09-15T04:26:27.256Z,100179.34
2022-09-15T04:28:58.684Z,100182.19
2022-09-15T04:34:20.592Z,100187.56
2022-09-15T04:36:48.670Z,100187.56
2022-09-15T04:39:16.541Z,100182.88
2022-09-15T04:41:44.362Z,100191.50
2022-09-15T04:44:13.667Z,100179.06
2022-09-15T04:46:41.624Z,100178.78
2022-09-15T04:49:09.568Z,100184.72
2022-09-15T04:51:37.547Z,100182.47
2022-09-15T04:54:05.745Z,100180.75
2022-09-15T04:56:33.658Z,100174.25
2022-09-15T04:59:04.166Z,100174.81
2022-09-15T05:01:35.623Z,100175.25
2022-09-15T05:04:05.078Z,100171.72
2022-09-15T05:06:34.793Z,100176.22
2022-09-15T05:09:09.022Z,100183.03
2022-09-15T05:11:38.778Z,100186.16
2022-09-15T05:14:08.067Z,100177.34
2022-09-15T05:16:37.377Z,100180.75
2022-09-15T05:19:05.847Z,100177.81
2022-09-15T05:21:34.413Z,100177.66
2022-09-15T05:24:02.799Z,100175.22
2022-09-15T05:26:31.961Z,100174.66
2022-09-15T05:28:59.876Z,100173.25
2022-09-15T05:31:29.220Z,100176.94
2022-09-15T05:33:58.845Z,100168.88
2022-09-15T05:36:26.971Z,100173.25
2022-09-15T05:38:56.562Z,100177.22
2022-09-15T05:41:25.532Z,100177.91
2022-09-15T05:43:54.769Z,100176.25
2022-09-15T05:46:22.821Z,100168.88
2022-09-15T05:48:51.303Z,100169.03
2022-09-15T05:51:20.937Z,100175.22
2022-09-15T05:53:49.351Z,100183.59
2022-09-15T05:56:18.453Z,100181.75
2022-09-15T05:58:48.563Z,100192.22
2022-09-15T06:01:18.473Z,100185.56
2022-09-15T06:03:47.005Z,100189.97
2022-09-15T06:06:15.451Z,100184.72
2022-09-15T06:08:55.636Z,100186.44
2022-09-15T06:11:26.581Z,100180.75
2022-09-15T06:13:54.540Z,100191.66
2022-09-15T06:16:24.935Z,100194.63
2022-09-15T06:18:55.205Z,100187.13
2022-09-15T06:21:25.679Z,100188.25
2022-09-15T06:23:56.005Z,100191.06
2022-09-15T06:26:24.396Z,100199.56
2022-09-15T06:28:54.729Z,100195.72
2022-09-15T06:31:24.104Z,100198.09
2022-09-15T06:33:54.669Z,100201.38
2022-09-15T06:36:25.172Z,100201.81
2022-09-15T06:38:53.383Z,100200.66
2022-09-15T06:41:23.422Z,100209.00
2022-09-15T06:43:52.302Z,100213.28
2022-09-15T06:46:23.501Z,100227.50
2022-09-15T06:48:52.060Z,100231.09
2022-09-15T06:51:21.502Z,100224.94
2022-09-15T06:53:50.141Z,100231.44
2022-09-15T06:56:20.943Z,100232.13
2022-09-15T06:58:50.311Z,100235.97
2022-09-15T07:01:23.529Z,100238.09
2022-09-15T07:03:51.514Z,100231.69
2022-09-15T07:06:20.194Z,100235.16
2022-09-15T07:08:49.726Z,100236.38
2022-09-15T07:11:19.351Z,100233.78
2022-09-15T07:13:49.323Z,100237.72
2022-09-15T07:16:20.015Z,100234.81
2022-09-15T07:18:48.970Z,100222.78
2022-09-15T07:21:20.167Z,100231.31
2022-09-15T07:23:49.010Z,100231.63
2022-09-15T07:26:18.967Z,100237.97
2022-09-15T07:28:50.070Z,100236.63
2022-09-15T07:31:21.517Z,100234.31
2022-09-15T07:33:49.912Z,100230.00
2022-09-15T07:36:18.589Z,100234.41
2022-09-15T07:38:48.965Z,100234.56
2022-09-15T07:41:19.412Z,100236.50
2022-09-15T07:43:48.550Z,100237.94
2022-09-15T07:46:17.216Z,100232.66
2022-09-15T07:48:47.565Z,100228.34
2022-09-15T07:51:16.804Z,100222.44
2022-09-15T07:53:47.908Z,100222.03
2022-09-15T07:56:17.633Z,100233.91
2022-09-15T07:58:45.760Z,100232.34
2022-09-15T08:01:14.928Z,100232.25
2022-09-15T08:03:43.877Z,100236.72
2022-09-15T08:06:14.159Z,100236.25
2022-09-15T08:08:44.076Z,100231.72
2022-09-15T08:11:18.507Z,100240.69
2022-09-15T08:13:47.024Z,100243.00
2022-09-15T08:16:16.837Z,100241.88
2022-09-15T08:18:45.874Z,100245.00
2022-09-15T08:21:18.329Z,100246.19
2022-09-15T08:23:46.263Z,100253.50
2022-09-15T08:26:14.706Z,100246.47
2022-09-15T08:28:43.281Z,100244.69
2022-09-15T08:31:13.985Z,100245.50
2022-09-15T08:33:45.653Z,100247.53
2022-09-15T08:36:15.463Z,100250.56
2022-09-15T08:38:45.676Z,100245.13
2022-09-15T08:41:18.295Z,100255.47
2022-09-15T08:43:51.476Z,100247.81
2022-09-15T08:46:25.888Z,100255.97
2022-09-15T08:49:03.078Z,100254.53
2022-09-15T08:51:42.541Z,100248.81
2022-09-15T08:54:17.491Z,100250.00
2022-09-15T08:56:45.964Z,100250.78
2022-09-15T08:59:15.948Z,100258.84
2022-09-15T09:02:17.756Z,100257.22
2022-09-15T09:05:05.305Z,100266.03
2022-09-15T09:07:54.508Z,100266.25
2022-09-15T09:10:30.188Z,100271.97
2022-09-15T09:13:11.818Z,100262.63
2022-09-15T09:15:50.917Z,100267.28
2022-09-15T09:18:37.465Z,100260.09
2022-09-15T09:21:15.190Z,100260.75
2022-09-15T09:23:50.310Z,100255.69
2022-09-15T09:26:18.399Z,100249.16
2022-09-15T09:28:53.175Z,100248.38
2022-09-15T09:31:23.643Z,100250.97
2022-09-15T09:33:57.246Z,100265.22
2022-09-15T09:36:25.277Z,100271.31
2022-09-15T09:38:55.193Z,100280.63
2022-09-15T09:41:35.710Z,100273.66
2022-09-15T09:44:05.210Z,100290.78
2022-09-15T09:46:33.093Z,100297.22
2022-09-15T09:49:05.801Z,100317.53
2022-09-15T09:51:36.806Z,100303.41
2022-09-15T09:54:16.252Z,100305.13
2022-09-15T09:56:44.899Z,100303.88
2022-09-15T09:59:35.300Z,100301.25
2022-09-15T10:02:18.448Z,100295.53
2022-09-15T10:04:47.886Z,100292.44
2022-09-15T10:07:17.817Z,100286.69
2022-09-15T10:09:58.408Z,100285.72
2022-09-15T10:12:35.068Z,100286.41
2022-09-15T10:15:05.849Z,100284.94
2022-09-15T10:17:43.747Z,100289.16
2022-09-15T10:20:33.428Z,100284.50
2022-09-15T10:23:07.779Z,100281.25
2022-09-15T10:25:58.018Z,100273.63
2022-09-15T10:28:28.550Z,100277.50
2022-09-15T10:31:02.262Z,100273.06
2022-09-15T10:33:32.148Z,100266.69
2022-09-15T10:36:06.453Z,100270.06
2022-09-15T10:38:40.591Z,100274.84
2022-09-15T10:41:24.772Z,100264.50
2022-09-15T10:44:11.408Z,100265.22
2022-09-15T10:46:50.628Z,100263.19
2022-09-15T10:49:44.614Z,100267.75
2022-09-15T10:52:20.726Z,100256.03
2022-09-15T10:55:04.304Z,100261.59
2022-09-15T10:57:58.875Z,100251.59
2022-09-15T11:00:33.979Z,100252.72
2022-09-15T11:03:28.367Z,100255.91
2022-09-15T11:06:13.383Z,100256.13
2022-09-15T11:09:13.577Z,100261.44
2022-09-15T11:11:53.476Z,100267.31
2022-09-15T11:14:45.021Z,100266.44
2022-09-15T11:17:28.169Z,100262.94
2022-09-15T11:20:27.836Z,100269.09
2022-09-15T11:23:04.758Z,100267.34
2022-09-15T11:25:36.704Z,100268.69
2022-09-15T11:28:13.111Z,100297.34
2022-09-15T11:30:49.350Z,100314.31
2022-09-15T11:33:21.232Z,100316.94
2022-09-15T11:35:57.708Z,100331.66
2022-09-15T11:38:38.016Z,100328.06
2022-09-15T11:41:17.145Z,100328.66
2022-09-15T11:43:58.249Z,100323.19
2022-09-15T11:46:34.694Z,100325.28
2022-09-15T11:49:08.123Z,100311.84
2022-09-15T11:51:42.457Z,100312.44
2022-09-15T11:54:20.219Z,100309.94
2022-09-15T11:56:49.745Z,100307.09
2022-09-15T11:59:25.930Z,100296.03
2022-09-15T12:02:00.822Z,100302.78
2022-09-15T12:04:33.125Z,100309.50
2022-09-15T12:07:09.837Z,100293.53
2022-09-15T12:09:41.253Z,100288.09
2022-09-15T12:12:15.789Z,100294.41
2022-09-15T12:14:46.716Z,100292.38
2022-09-15T12:17:24.782Z,100287.13
2022-09-15T12:20:01.564Z,100292.75
2022-09-15T12:22:37.666Z,100292.72
2022-09-15T12:25:12.098Z,100279.84
2022-09-15T12:27:40.229Z,100293.22
2022-09-15T12:30:39.535Z,100289.16
2022-09-15T12:33:41.013Z,100288.97
2022-09-15T12:36:33.840Z,100277.97
2022-09-15T12:39:03.419Z,100278.91
2022-09-15T12:41:32.413Z,100284.13
2022-09-15T12:44:07.209Z,100270.28
2022-09-15T12:46:35.309Z,100274.72
2022-09-15T12:49:04.344Z,100273.69
2022-09-15T12:51:33.848Z,100276.97
2022-09-15T12:54:05.502Z,100277.91
2022-09-15T12:56:35.855Z,100274.75
2022-09-15T12:59:06.944Z,100274.66
2022-09-15T13:01:49.111Z,100269.66
2022-09-15T13:04:54.400Z,100271.91
2022-09-15T13:07:58.325Z,100275.97
2022-09-15T13:10:32.763Z,100266.50
2022-09-15T13:13:18.963Z,100271.63
2022-09-15T13:15:50.302Z,100283.47
2022-09-15T13:18:20.777Z,100288.72
2022-09-15T13:20:58.496Z,100277.81
2022-09-15T13:23:29.992Z,100286.31
2022-09-15T13:26:01.060Z,100305.28
2022-09-15T13:28:29.410Z,100335.03
2022-09-15T13:31:22.427Z,100338.75
2022-09-15T13:35:04.815Z,100344.13
2022-09-15T13:38:16.839Z,100341.03
2022-09-15T13:41:18.333Z,100340.03
2022-09-15T13:44:22.146Z,100335.94
2022-09-15T13:47:01.541Z,100326.81
2022-09-15T13:49:48.470Z,100324.72
2022-09-15T13:52:33.934Z,100325.97
2022-09-15T13:55:19.586Z,100324.38
2022-09-15T14:00:48.295Z,100324.28
2022-09-15T14:03:20.477Z,100316.69
2022-09-15T14:05:48.494Z,100311.22
2022-09-15T14:08:19.785Z,100310.50
2022-09-15T14:10:51.763Z,100310.81
2022-09-15T14:13:23.275Z,100305.66
2022-09-15T14:15:59.745Z,100310.56
2022-09-15T14:18:28.222Z,100303.84
2022-09-15T14:21:01.192Z,100312.97
2022-09-15T14:23:29.802Z,100298.94
2022-09-15T14:26:00.429Z,100310.66
2022-09-15T14:28:33.322Z,100308.50
2022-09-15T14:31:02.805Z,100307.13
2022-09-15T14:33:38.195Z,100320.16
2022-09-15T14:36:14.337Z,100316.78
2022-09-15T14:38:42.247Z,100313.03
2022-09-15T14:41:20.458Z,100312.75
2022-09-15T14:43:49.890Z,100314.19
2022-09-15T14:46:20.948Z,100315.81
2022-09-15T14:48:48.855Z,100321.97
2022-09-15T14:51:22.892Z,100331.31
2022-09-15T14:53:53.174Z,100352.25
2022-09-15T14:56:24.568Z,100336.06
2022-09-15T14:58:57.016Z,100348.91
2022-09-15T15:01:30.981Z,100356.00
2022-09-15T15:04:09.970Z,100353.50
2022-09-15T15:06:43.055Z,100348.53
2022-09-15T15:09:21.293Z,100334.81
2022-09-15T15:11:52.642Z,100324.69
2022-09-15T15:16:52.895Z,100325.00
2022-09-15T15:19:39.710Z,100330.94
2022-09-15T15:22:09.490Z,100333.09
2022-09-15T15:24:41.883Z,100317.94
2022-09-15T15:27:43.150Z,100319.66
2022-09-15T15:30:44.193Z,100321.34
2022-09-15T15:33:29.897Z,100320.06
2022-09-15T15:36:09.107Z,100316.13
2022-09-15T15:38:46.421Z,100314.13
2022-09-15T15:41:21.825Z,100319.09
2022-09-15T15:44:01.685Z,100319.38
2022-09-15T15:46:52.836Z,100330.00
2022-09-15T15:49:22.332Z,100324.75
2022-09-15T15:51:50.212Z,100315.81
2022-09-15T15:54:18.052Z,100323.91
2022-09-15T15:56:47.541Z,100323.59
2022-09-15T15:59:16.401Z,100317.22
2022-09-15T16:01:44.895Z,100323.19
2022-09-15T16:04:14.387Z,100310.44
2022-09-15T16:06:43.369Z,100313.69
2022-09-15T16:09:13.714Z,100317.94
2022-09-15T16:11:42.358Z,100314.06
2022-09-15T16:14:13.419Z,100311.25
2022-09-15T16:16:41.350Z,100313.66
2022-09-15T16:19:09.772Z,100311.19
2022-09-15T16:21:42.588Z,100307.97
2022-09-15T16:24:14.121Z,100300.75
2022-09-15T16:26:42.713Z,100307.09
2022-09-15T16:29:10.764Z,100307.38
2022-09-15T16:31:39.593Z,100311.34
2022-09-15T16:34:07.573Z,100311.78
2022-09-15T16:36:36.408Z,100307.25
2022-09-15T16:39:05.843Z,100299.97
2022-09-15T16:41:38.514Z,100312.63
2022-09-15T16:44:08.326Z,100315.47
2022-09-15T16:46:36.191Z,100313.44
2022-09-15T16:49:04.068Z,100312.50
2022-09-15T16:51:32.061Z,100322.84
2022-09-15T16:53:59.982Z,100311.53
2022-09-15T16:56:29.243Z,100321.44
2022-09-15T16:59:00.505Z,100318.75
2022-09-15T17:01:29.236Z,100318.78
2022-09-15T17:03:57.629Z,100326.28
2022-09-15T17:06:25.478Z,100318.34
2022-09-15T17:08:53.398Z,100325.03
2022-09-15T17:11:24.032Z,100330.84
2022-09-15T17:13:53.518Z,100326.72
2022-09-15T17:16:21.546Z,100323.78
2022-09-15T17:18:50.222Z,100326.19
2022-09-15T17:21:19.825Z,100324.34
2022-09-15T17:23:49.335Z,100326.31
2022-09-15T17:26:20.874Z,100330.25
2022-09-15T17:28:49.097Z,100322.34
2022-09-15T17:31:20.724Z,100332.53
2022-09-15T17:33:49.944Z,100332.53
2022-09-15T17:36:18.350Z,100324.97
2022-09-15T17:38:49.053Z,100338.31
2022-09-15T17:41:19.094Z,100325.25
2022-09-15T17:43:47.557Z,100330.78
2022-09-15T17:46:15.609Z,100336.28
2022-09-15T17:48:44.836Z,100331.88
2022-09-15T17:51:17.595Z,100333.75
2022-09-15T17:53:47.010Z,100335.41
2022-09-15T17:56:14.962Z,100340.22
2022-09-15T17:58:43.512Z,100330.03
2022-09-15T18:01:14.481Z,100337.81
2022-09-15T18:03:45.535Z,100339.25
2022-09-15T18:06:14.254Z,100341.22
2022-09-15T18:08:42.334Z,100344.28
2022-09-15T18:11:14.188Z,100339.50
2022-09-15T18:13:42.206Z,100337.09
2022-09-15T18:16:13.892Z,100340.63
2022-09-15T18:18:43.084Z,100340.78
2022-09-15T18:21:24.639Z,100342.06
2022-09-15T18:23:52.905Z,100342.31
2022-09-15T18:26:25.380Z,100335.94
2022-09-15T18:28:56.518Z,100337.19
2022-09-15T18:31:24.725Z,100341.84
2022-09-15T18:33:52.644Z,100342.13
2022-09-15T18:36:21.963Z,100340.84
2022-09-15T18:38:49.807Z,100360.31
2022-09-15T18:41:17.723Z,100345.19
2022-09-15T18:43:49.143Z,100351.53
2022-09-15T18:46:18.556Z,100348.44
2022-09-15T18:48:46.516Z,100350.38
2022-09-15T18:51:23.682Z,100347.72
2022-09-15T18:53:58.497Z,100351.34
2022-09-15T18:56:26.535Z,100347.41
2022-09-15T18:58:55.135Z,100350.13
2022-09-15T19:01:23.523Z,100342.63
2022-09-15T19:03:51.717Z,100356.63
2022-09-15T19:06:19.720Z,100351.16
2022-09-15T19:08:47.704Z,100353.47
2022-09-15T19:11:17.436Z,100360.81
2022-09-15T19:13:45.328Z,100370.63
2022-09-15T19:16:13.257Z,100358.44
2022-09-15T19:18:41.484Z,100363.81
2022-09-15T19:21:11.293Z,100374.56
2022-09-15T19:23:39.457Z,100369.59
2022-09-15T19:26:09.412Z,100370.16
2022-09-15T19:28:38.720Z,100358.31
2022-09-15T19:31:06.747Z,100361.38
2022-09-15T19:33:34.734Z,100377.91
2022-09-15T19:36:26.872Z,100373.72
2022-09-15T19:38:51.365Z,100378.50
2022-09-15T19:41:19.233Z,100391.94
2022-09-15T19:43:48.464Z,100381.31
2022-09-15T19:46:18.442Z,100375.19
2022-09-15T19:48:49.975Z,100388.41
2022-09-15T19:51:18.070Z,100379.19
2022-09-15T19:53:47.206Z,100382.09
2022-09-15T19:56:16.250Z,100386.81
2022-09-15T19:58:44.227Z,100395.09
2022-09-15T20:01:13.782Z,100395.00
2022-09-15T20:03:41.808Z,100395.72
2022-09-15T20:06:10.417Z,100398.91
2022-09-15T20:08:38.413Z,100396.09
2022-09-15T20:11:09.093Z,100396.09
2022-09-15T20:13:41.418Z,100392.09
2022-09-15T20:16:09.689Z,100390.19
2022-09-15T20:18:41.461Z,100392.47
2022-09-15T20:21:17.941Z,100396.28
2022-09-15T20:23:50.242Z,100396.06
2022-09-15T20:26:19.207Z,100398.56
2022-09-15T20:28:47.651Z,100395.78
2022-09-15T20:31:17.525Z,100397.75
2022-09-15T20:33:48.776Z,100398.47
2022-09-15T20:36:20.337Z,100403.44
2022-09-15T20:38:49.123Z,100395.31
2022-09-15T20:41:18.557Z,100401.19
2022-09-15T20:43:46.725Z,100400.69
2022-09-15T20:46:16.410Z,100392.56
2022-09-15T20:48:46.966Z,100396.09
2022-09-15T20:51:17.191Z,100396.03
2022-09-15T20:53:46.760Z,100393.34
2022-09-15T20:56:15.834Z,100392.13
2022-09-15T20:58:44.680Z,100395.16
2022-09-15T21:01:14.490Z,100397.25
2022-09-15T21:03:44.489Z,100393.44
2022-09-15T21:06:15.752Z,100395.41
2022-09-15T21:08:44.170Z,100402.59
2022-09-15T21:11:12.519Z,100405.03
2022-09-15T21:13:42.200Z,100403.06
2022-09-15T21:16:11.857Z,100410.38
2022-09-15T21:18:41.022Z,100408.28
2022-09-15T21:21:11.973Z,100409.59
2022-09-15T21:23:42.847Z,100411.94
2022-09-15T21:26:13.233Z,100411.22
2022-09-15T21:28:41.307Z,100405.50
2022-09-15T21:31:11.349Z,100414.13
2022-09-15T21:33:40.382Z,100399.91
2022-09-15T21:36:10.405Z,100402.94
2022-09-15T21:38:40.529Z,100407.22
2022-09-15T21:41:11.629Z,100402.00
2022-09-15T21:43:41.287Z,100399.09
2022-09-15T21:46:12.286Z,100403.22
2022-09-15T21:48:40.900Z,100396.38
2022-09-15T21:51:11.798Z,100401.03
2022-09-15T21:53:39.887Z,100402.00
2022-09-15T21:56:12.095Z,100395.66
2022-09-15T21:58:43.158Z,100400.78
2022-09-15T22:01:13.899Z,100406.63
2022-09-15T22:03:43.312Z,100411.88
2022-09-15T22:06:12.214Z,100402.75
2022-09-15T22:08:41.121Z,100413.22
2022-09-15T22:11:11.676Z,100412.00
2022-09-15T22:13:42.016Z,100410.53
2022-09-15T22:16:13.712Z,100418.81
2022-09-15T22:18:42.493Z,100408.09
2022-09-15T22:21:12.744Z,100413.47
2022-09-15T22:23:41.297Z,100422.47
2022-09-15T22:26:13.216Z,100420.78
2022-09-15T22:28:41.097Z,100416.63
2022-09-15T22:31:11.221Z,100420.16
2022-09-15T22:33:41.218Z,100418.31
2022-09-15T22:36:11.166Z,100424.19
2022-09-15T22:38:39.259Z,100418.09
2022-09-15T22:41:09.257Z,100429.03
2022-09-15T22:43:39.058Z,100419.31
2022-09-15T22:46:07.597Z,100422.09
2022-09-15T22:48:39.766Z,100423.19
2022-09-15T22:51:11.758Z,100416.75
2022-09-15T22:53:40.409Z,100411.25
2022-09-15T22:56:10.907Z,100413.06
2022-09-15T22:58:43.397Z,100412.47
2022-09-15T23:01:13.556Z,100417.56
2022-09-15T23:03:41.927Z,100408.81
2022-09-15T23:06:09.938Z,100404.31
2022-09-15T23:08:38.160Z,100414.06
2022-09-15T23:11:07.414Z,100404.56
2022-09-15T23:13:35.884Z,100401.00
2022-09-15T23:16:06.257Z,100408.06
2022-09-15T23:18:35.013Z,100408.91
2022-09-15T23:21:05.401Z,100416.47
2022-09-15T23:23:33.262Z,100412.06
2022-09-15T23:26:01.888Z,100408.03
2022-09-15T23:28:31.108Z,100406.00
2022-09-15T23:31:00.180Z,100404.91
2022-09-15T23:33:31.801Z,100413.41
2022-09-15T23:36:00.228Z,100406.69
2022-09-15T23:38:28.300Z,100411.69
2022-09-15T23:40:56.273Z,100404.00
2022-09-15T23:43:24.196Z,100406.69
2022-09-15T23:45:53.571Z,100412.16
2022-09-15T23:48:22.678Z,100406.19
2022-09-15T23:50:52.041Z,100394.91
2022-09-15T23:53:20.470Z,100403.34
2022-09-15T23:55:48.781Z,100406.84
2022-09-15T23:58:17.163Z,100401.47
